createdAt,value
2018-06-30T00:01:46.330Z,58.20
2018-06-30T00:04:14.550Z,58.90
2018-06-30T00:06:42.663Z,58.90
2018-06-30T00:09:10.778Z,59.10
2018-06-30T00:11:38.878Z,59.20
2018-06-30T00:14:07.027Z,59.40
2018-06-30T00:16:35.163Z,59.60
2018-06-30T00:19:03.265Z,59.80
2018-06-30T00:21:31.364Z,60.00
2018-06-30T00:23:59.460Z,60.40
2018-06-30T00:26:27.579Z,61.10
2018-06-30T00:28:55.687Z,61.50
2018-06-30T00:31:23.806Z,61.80
2018-06-30T00:33:51.894Z,62.00
2018-06-30T00:36:19.986Z,63.30
2018-06-30T00:38:48.088Z,63.70
2018-06-30T00:41:16.278Z,64.20
2018-06-30T00:43:44.395Z,64.60
2018-06-30T00:46:12.499Z,65.30
2018-06-30T00:48:40.704Z,65.90
2018-06-30T00:51:08.750Z,66.50
2018-06-30T00:53:36.943Z,67.40
2018-06-30T00:56:05.223Z,68.40
2018-06-30T00:58:33.338Z,69.00
2018-06-30T01:01:01.439Z,69.90
2018-06-30T01:03:29.536Z,71.40
2018-06-30T01:05:57.645Z,71.60
2018-06-30T01:08:25.963Z,72.20
2018-06-30T01:10:54.063Z,72.50
2018-06-30T01:13:22.285Z,73.70
2018-06-30T01:15:50.490Z,74.10
2018-06-30T01:18:18.605Z,74.30
2018-06-30T01:20:46.760Z,75.00
2018-06-30T01:23:14.871Z,75.90
2018-06-30T01:25:42.978Z,76.20
2018-06-30T01:28:11.078Z,77.00
2018-06-30T01:30:39.184Z,77.60
2018-06-30T01:33:07.282Z,77.90
2018-06-30T01:35:35.384Z,78.30
2018-06-30T01:38:03.492Z,79.00
2018-06-30T01:40:31.599Z,79.60
2018-06-30T01:42:59.716Z,79.90
2018-06-30T01:45:27.837Z,81.20
2018-06-30T01:47:55.924Z,81.00
2018-06-30T01:52:51.901Z,81.10
2018-06-30T01:55:20.042Z,82.50
2018-06-30T01:57:48.763Z,82.10
2018-06-30T02:00:16.910Z,82.60
2018-06-30T02:02:45.063Z,82.80
2018-06-30T02:05:13.198Z,83.10
2018-06-30T02:07:41.322Z,83.40
2018-06-30T02:10:09.484Z,83.40
2018-06-30T02:12:37.654Z,83.90
2018-06-30T02:15:06.126Z,83.80
2018-06-30T02:17:34.259Z,83.80
2018-06-30T02:20:02.464Z,83.50
2018-06-30T02:22:30.655Z,83.80
2018-06-30T02:24:58.795Z,84.20
2018-06-30T02:27:26.946Z,84.40
2018-06-30T02:29:55.110Z,85.00
2018-06-30T02:32:23.250Z,86.00
2018-06-30T02:34:51.388Z,85.40
2018-06-30T02:37:19.607Z,85.50
2018-06-30T02:39:47.750Z,86.50
2018-06-30T02:42:15.907Z,86.20
2018-06-30T02:44:44.115Z,86.20
2018-06-30T02:47:12.241Z,86.40
2018-06-30T02:49:40.375Z,86.50
2018-06-30T02:52:08.508Z,86.70
2018-06-30T02:54:36.659Z,87.00
2018-06-30T02:57:04.903Z,87.40
2018-06-30T02:59:33.031Z,87.50
2018-06-30T03:02:01.175Z,87.80
2018-06-30T03:04:29.388Z,88.30
2018-06-30T03:06:57.496Z,88.20
2018-06-30T03:09:26.097Z,88.60
2018-06-30T03:11:54.208Z,88.80
2018-06-30T03:14:22.311Z,89.00
2018-06-30T03:16:50.502Z,89.00
2018-06-30T03:19:18.627Z,89.10
2018-06-30T03:21:46.727Z,89.40
2018-06-30T03:24:14.884Z,89.40
2018-06-30T03:26:43.036Z,89.80
2018-06-30T03:29:11.182Z,90.00
2018-06-30T03:31:39.345Z,90.10
2018-06-30T03:34:07.391Z,90.10
2018-06-30T03:36:35.470Z,90.40
2018-06-30T03:39:04.003Z,90.50
2018-06-30T03:41:32.101Z,90.60
2018-06-30T03:44:00.206Z,90.70
2018-06-30T03:46:28.350Z,90.70
2018-06-30T03:48:56.583Z,90.60
2018-06-30T03:51:24.727Z,90.80
2018-06-30T03:53:52.873Z,90.80
2018-06-30T03:56:21.016Z,90.80
2018-06-30T03:58:50.071Z,90.80
2018-06-30T04:01:18.215Z,90.80
2018-06-30T04:03:46.366Z,90.80
2018-06-30T04:06:14.480Z,90.80
2018-06-30T04:08:42.674Z,90.90
2018-06-30T04:11:10.895Z,90.80
2018-06-30T04:13:39.044Z,90.80
2018-06-30T04:16:07.190Z,90.70
2018-06-30T04:18:35.365Z,90.70
2018-06-30T04:21:03.518Z,90.80
2018-06-30T04:23:31.686Z,90.60
2018-06-30T04:25:59.899Z,90.70
2018-06-30T04:28:28.028Z,90.60
2018-06-30T04:30:56.189Z,90.50
2018-06-30T04:33:24.370Z,90.60
2018-06-30T04:35:52.551Z,90.60
2018-06-30T04:38:20.685Z,90.60
2018-06-30T04:40:48.817Z,90.70
2018-06-30T04:43:16.966Z,91.10
2018-06-30T04:45:45.255Z,90.70
2018-06-30T04:48:13.423Z,90.70
2018-06-30T04:50:41.560Z,90.70
2018-06-30T04:53:09.726Z,90.70
2018-06-30T04:55:37.906Z,90.70
2018-06-30T04:58:06.174Z,90.80
2018-06-30T05:00:34.326Z,90.90
2018-06-30T05:03:02.487Z,91.00
2018-06-30T05:05:30.655Z,90.80
2018-06-30T05:07:58.822Z,90.60
2018-06-30T05:10:26.958Z,90.80
2018-06-30T05:12:55.219Z,90.70
2018-06-30T05:15:23.237Z,90.60
2018-06-30T05:17:51.418Z,90.40
2018-06-30T05:20:19.556Z,90.20
2018-06-30T05:22:47.694Z,90.00
2018-06-30T05:25:16.681Z,90.00
2018-06-30T05:27:44.810Z,89.80
2018-06-30T05:30:12.962Z,89.50
2018-06-30T05:32:41.142Z,90.00
2018-06-30T05:35:09.290Z,90.00
2018-06-30T05:37:37.423Z,89.10
2018-06-30T05:40:05.576Z,89.10
2018-06-30T05:42:33.750Z,89.30
2018-06-30T05:45:01.892Z,90.10
2018-06-30T05:47:30.199Z,89.10
2018-06-30T05:49:58.366Z,88.60
2018-06-30T05:52:26.563Z,88.70
2018-06-30T05:54:54.704Z,88.10
2018-06-30T05:57:22.812Z,87.10
2018-06-30T05:59:50.914Z,86.80
2018-06-30T06:02:19.049Z,86.60
2018-06-30T06:07:15.047Z,85.60
2018-06-30T06:09:43.901Z,85.80
2018-06-30T06:12:11.991Z,84.80
2018-06-30T06:14:40.140Z,84.90
2018-06-30T06:17:08.247Z,84.20
2018-06-30T06:19:36.362Z,83.40
2018-06-30T06:22:04.491Z,82.40
2018-06-30T06:24:32.858Z,81.30
2018-06-30T06:27:00.938Z,80.90
2018-06-30T06:29:29.039Z,81.10
2018-06-30T06:31:57.135Z,81.40
2018-06-30T06:34:25.246Z,81.00
2018-06-30T06:36:53.563Z,80.80
2018-06-30T06:39:21.666Z,81.00
2018-06-30T06:41:49.778Z,80.70
2018-06-30T06:44:17.924Z,78.20
2018-06-30T06:46:46.406Z,72.30
2018-06-30T06:49:14.524Z,63.50
2018-06-30T06:51:42.622Z,57.60
2018-06-30T06:54:10.799Z,53.10
2018-06-30T06:56:38.979Z,49.60
2018-06-30T06:59:07.058Z,46.50
2018-06-30T07:01:35.175Z,44.60
2018-06-30T07:04:03.263Z,42.80
2018-06-30T07:06:31.372Z,41.00
2018-06-30T07:08:59.467Z,39.60
2018-06-30T07:11:27.571Z,38.50
2018-06-30T07:13:55.673Z,37.40
2018-06-30T07:16:23.752Z,36.60
2018-06-30T07:18:51.869Z,35.70
2018-06-30T07:21:20.048Z,34.80
2018-06-30T07:23:48.130Z,33.40
2018-06-30T07:26:16.255Z,32.30
2018-06-30T07:28:44.345Z,31.10
2018-06-30T07:31:12.536Z,29.90
2018-06-30T07:33:40.640Z,29.20
2018-06-30T07:36:08.710Z,28.50
2018-06-30T07:38:36.786Z,28.20
2018-06-30T07:41:04.943Z,27.80
2018-06-30T07:43:33.088Z,27.00
2018-06-30T07:46:01.228Z,26.70
2018-06-30T07:48:29.310Z,26.50
2018-06-30T07:50:57.421Z,25.80
2018-06-30T07:53:25.606Z,25.60
2018-06-30T07:55:53.719Z,25.20
2018-06-30T07:58:21.826Z,25.20
2018-06-30T08:00:49.925Z,25.30
2018-06-30T08:03:18.019Z,25.40
2018-06-30T08:05:46.131Z,25.40
2018-06-30T08:08:14.238Z,25.70
2018-06-30T08:10:42.335Z,25.60
2018-06-30T08:13:10.484Z,26.20
2018-06-30T08:15:38.590Z,26.90
2018-06-30T08:18:06.735Z,27.40
2018-06-30T10:56:41.602Z,34.00
2018-06-30T10:59:09.757Z,32.40
2018-06-30T11:01:37.888Z,31.50
2018-06-30T11:04:06.068Z,30.00
2018-06-30T11:06:34.981Z,30.30
2018-06-30T11:09:04.062Z,29.00
2018-06-30T11:11:32.191Z,28.90
2018-06-30T11:14:00.328Z,27.70
2018-06-30T11:16:28.451Z,27.70
2018-06-30T11:18:57.631Z,27.20
2018-06-30T11:21:25.745Z,27.10
2018-06-30T11:23:54.051Z,27.80
2018-06-30T11:26:22.183Z,27.60
2018-06-30T11:28:50.355Z,27.10
2018-06-30T11:31:18.495Z,27.70
2018-06-30T11:33:46.632Z,27.90
2018-06-30T11:36:14.807Z,27.40
2018-06-30T11:38:43.015Z,27.10
2018-06-30T11:41:11.075Z,27.00
2018-06-30T11:43:39.227Z,26.80
2018-06-30T11:46:07.352Z,26.20
2018-06-30T11:48:35.478Z,25.50
2018-06-30T11:51:03.623Z,26.00
2018-06-30T11:53:31.740Z,24.80
2018-06-30T11:55:59.829Z,25.40
2018-06-30T11:58:27.910Z,25.20
2018-06-30T12:00:56.015Z,24.60
2018-06-30T12:03:24.211Z,25.10
2018-06-30T12:05:52.255Z,25.10
2018-06-30T12:08:20.341Z,24.90
2018-06-30T12:10:48.444Z,24.20
2018-06-30T12:13:16.565Z,24.30
2018-06-30T12:15:44.696Z,23.50
2018-06-30T12:18:12.795Z,23.50
2018-06-30T12:20:40.992Z,23.30
2018-06-30T12:23:09.091Z,22.70
2018-06-30T12:25:37.743Z,23.50
2018-06-30T12:28:05.847Z,23.60
2018-06-30T12:30:33.936Z,22.70
2018-06-30T12:33:02.048Z,22.80
2018-06-30T12:35:30.155Z,22.50
2018-06-30T12:37:58.257Z,22.20
2018-06-30T12:40:27.262Z,23.40
2018-06-30T12:42:55.359Z,23.10
2018-06-30T12:45:23.482Z,22.90
2018-06-30T12:47:51.582Z,22.40
2018-06-30T12:50:19.716Z,22.50
2018-06-30T12:52:47.831Z,22.00
2018-06-30T12:55:16.090Z,22.20
2018-06-30T12:57:44.314Z,22.10
2018-06-30T13:00:12.463Z,21.90
2018-06-30T13:02:40.707Z,21.60
2018-06-30T13:05:08.838Z,22.40
2018-06-30T13:07:36.972Z,22.20
2018-06-30T13:10:05.126Z,21.80
2018-06-30T13:12:33.253Z,22.30
2018-06-30T13:15:01.467Z,23.00
2018-06-30T13:17:29.603Z,23.70
2018-06-30T13:19:58.641Z,23.10
2018-06-30T13:22:27.314Z,22.80
2018-06-30T13:24:55.433Z,23.10
2018-06-30T13:27:23.566Z,22.40
2018-06-30T13:29:51.692Z,22.90
2018-06-30T14:32:43.337Z,26.70
2018-06-30T14:35:11.471Z,25.50
2018-06-30T14:37:40.155Z,24.10
2018-06-30T14:40:09.203Z,23.10
2018-06-30T14:42:37.286Z,21.80
2018-06-30T14:45:05.501Z,22.00
2018-06-30T14:47:33.577Z,21.80
2018-06-30T14:50:01.720Z,22.70
2018-06-30T14:52:29.839Z,22.40
2018-06-30T14:54:57.943Z,21.70
2018-06-30T14:59:54.926Z,22.90
2018-06-30T15:02:23.136Z,25.50
2018-06-30T15:04:51.376Z,23.10
2018-06-30T15:07:19.556Z,23.60
2018-06-30T15:09:47.671Z,23.70
2018-06-30T15:12:15.835Z,24.30
2018-06-30T15:14:44.049Z,27.40
2018-06-30T15:17:12.198Z,23.90
2018-06-30T15:19:40.520Z,23.60
2018-06-30T15:22:08.671Z,23.80
2018-06-30T15:24:36.893Z,23.00
2018-06-30T15:27:04.991Z,22.80
2018-06-30T15:29:33.119Z,26.50
2018-06-30T15:32:01.333Z,25.40
2018-06-30T15:34:29.513Z,24.60
2018-06-30T15:36:57.638Z,24.40
2018-06-30T15:39:25.843Z,24.00
2018-06-30T15:41:53.998Z,24.30
2018-06-30T15:44:22.168Z,23.80
2018-06-30T15:46:50.311Z,24.90
2018-06-30T15:49:18.525Z,23.90
2018-06-30T15:54:14.613Z,23.80
2018-06-30T15:56:42.767Z,23.00
2018-06-30T15:59:11.022Z,23.70
2018-06-30T16:01:39.156Z,22.60
2018-06-30T16:04:07.450Z,23.10
2018-06-30T16:06:35.561Z,22.90
2018-06-30T16:09:05.529Z,22.90
2018-06-30T16:11:33.682Z,22.20
2018-06-30T16:14:01.784Z,22.30
2018-06-30T16:16:29.984Z,22.70
2018-06-30T16:18:57.983Z,22.90
2018-06-30T16:21:26.066Z,22.80
2018-06-30T16:23:54.250Z,22.30
2018-06-30T16:26:22.422Z,22.60
2018-06-30T16:28:50.535Z,23.00
2018-06-30T16:31:18.643Z,21.60
2018-06-30T16:33:46.756Z,21.70
2018-06-30T16:36:14.868Z,22.40
2018-06-30T16:38:43.045Z,22.40
2018-06-30T16:41:11.162Z,22.70
2018-06-30T16:43:39.307Z,22.10
2018-06-30T16:46:07.422Z,22.30
2018-06-30T16:48:35.614Z,22.60
2018-06-30T16:51:03.763Z,22.40
2018-06-30T16:53:31.847Z,22.30
2018-06-30T16:56:00.111Z,22.40
2018-06-30T16:58:28.306Z,22.40
2018-06-30T17:00:56.420Z,21.80
2018-06-30T17:03:24.573Z,21.30
2018-06-30T17:05:52.739Z,22.60
2018-06-30T17:08:20.979Z,21.90
2018-06-30T17:10:49.078Z,21.70
2018-06-30T17:13:17.238Z,21.50
2018-06-30T17:15:45.398Z,22.00
2018-06-30T17:18:13.530Z,21.90
2018-06-30T17:20:41.768Z,22.90
2018-06-30T17:23:09.928Z,22.20
2018-06-30T17:25:38.075Z,22.30
2018-06-30T17:28:06.208Z,22.60
2018-06-30T17:30:34.339Z,22.70
2018-06-30T17:33:02.594Z,22.70
2018-06-30T17:35:30.726Z,23.20
2018-06-30T17:37:58.892Z,22.90
2018-06-30T17:40:27.915Z,23.70
2018-06-30T17:42:56.078Z,23.50
2018-06-30T17:47:52.134Z,24.60
2018-06-30T17:50:20.290Z,24.70
2018-06-30T17:52:49.086Z,24.10
2018-06-30T17:55:17.290Z,25.40
2018-06-30T17:57:45.429Z,25.30
2018-06-30T18:00:13.550Z,26.00
2018-06-30T18:02:41.750Z,26.40
2018-06-30T18:05:09.847Z,26.40
2018-06-30T18:07:38.064Z,24.60
2018-06-30T18:10:06.205Z,23.90
2018-06-30T18:12:34.353Z,24.90
2018-06-30T18:15:03.055Z,24.70
2018-06-30T18:17:31.185Z,24.80
2018-06-30T18:19:59.299Z,25.50
2018-06-30T18:22:27.914Z,25.40
2018-06-30T18:24:56.036Z,24.70
2018-06-30T18:27:24.230Z,24.40
2018-06-30T18:29:52.362Z,24.90
2018-06-30T18:32:20.559Z,25.60
2018-06-30T18:34:48.700Z,25.00
2018-06-30T18:37:16.906Z,25.10
2018-06-30T18:39:44.992Z,24.50
2018-06-30T18:42:13.084Z,24.90
2018-06-30T18:44:41.239Z,24.70
2018-06-30T18:47:09.346Z,25.00
2018-06-30T18:49:37.459Z,24.80
2018-06-30T18:52:05.650Z,24.70
2018-06-30T18:54:33.823Z,25.70
2018-06-30T18:59:36.733Z,25.80
2018-06-30T19:02:04.990Z,26.60
2018-06-30T19:04:33.173Z,26.90
2018-06-30T19:07:01.958Z,28.00
2018-06-30T19:09:30.047Z,28.10
2018-06-30T19:11:58.148Z,28.40
2018-06-30T19:14:26.258Z,28.50
2018-06-30T19:16:54.397Z,28.30
2018-06-30T19:19:22.563Z,28.60
2018-06-30T19:21:50.682Z,28.70
2018-06-30T19:24:18.898Z,28.60
2018-06-30T19:26:47.108Z,28.60
2018-06-30T19:29:15.191Z,28.40
2018-06-30T19:31:43.372Z,29.20
2018-06-30T19:34:11.481Z,28.80
2018-06-30T19:36:39.634Z,28.60
2018-06-30T19:39:09.363Z,29.20
2018-06-30T19:41:37.475Z,29.30
2018-06-30T19:44:05.590Z,29.10
2018-06-30T19:46:33.689Z,29.60
2018-06-30T19:49:01.798Z,29.70
2018-06-30T19:51:29.912Z,29.70
2018-06-30T19:53:57.999Z,29.40
2018-06-30T19:56:26.137Z,29.70
2018-06-30T19:58:54.434Z,29.90
2018-06-30T20:01:22.595Z,29.90
2018-06-30T20:03:50.767Z,29.90
2018-06-30T20:06:18.943Z,30.00
2018-06-30T20:08:47.066Z,30.00
2018-06-30T20:11:15.224Z,29.80
2018-06-30T20:13:43.392Z,30.70
2018-06-30T20:16:11.552Z,29.90
2018-06-30T20:18:39.683Z,29.90
2018-06-30T20:21:07.829Z,30.00
2018-06-30T20:23:35.959Z,30.50
2018-06-30T20:26:04.278Z,30.10
2018-06-30T20:28:32.418Z,30.30
2018-06-30T20:31:00.560Z,30.20
2018-06-30T20:33:28.694Z,30.40
2018-06-30T20:35:56.938Z,30.70
2018-06-30T20:38:25.132Z,30.60
2018-06-30T20:40:53.303Z,30.70
2018-06-30T20:43:21.528Z,30.40
2018-06-30T20:45:49.663Z,30.80
2018-06-30T20:48:17.881Z,31.30
2018-06-30T20:50:46.131Z,30.80
2018-06-30T20:53:14.192Z,31.40
2018-06-30T20:55:42.499Z,30.80
2018-06-30T20:58:10.644Z,31.40
2018-06-30T21:00:38.744Z,31.10
2018-06-30T21:03:07.127Z,31.60
2018-06-30T21:05:35.258Z,31.70
2018-06-30T21:08:03.486Z,31.40
2018-06-30T21:10:31.570Z,31.20
2018-06-30T21:12:59.671Z,32.20
2018-06-30T21:15:28.322Z,31.90
2018-06-30T21:17:56.443Z,32.90
2018-06-30T21:20:24.658Z,32.60
2018-06-30T21:22:52.833Z,32.60
2018-06-30T21:27:49.074Z,32.60
2018-06-30T21:32:45.123Z,33.20
2018-06-30T21:35:13.329Z,32.40
2018-06-30T21:37:41.411Z,32.90
2018-06-30T21:40:09.541Z,32.80
2018-06-30T21:42:37.644Z,32.80
2018-06-30T21:45:05.846Z,33.40
2018-06-30T21:47:33.955Z,33.40
2018-06-30T21:50:02.076Z,33.00
2018-06-30T21:52:30.162Z,33.10
2018-06-30T21:54:58.268Z,33.80
2018-06-30T21:57:26.387Z,33.80
2018-06-30T21:59:54.493Z,33.80
2018-06-30T22:02:22.591Z,34.00
2018-06-30T22:04:50.687Z,33.90
2018-06-30T22:07:18.776Z,34.50
2018-06-30T22:09:46.858Z,34.30
2018-06-30T22:12:14.963Z,34.50
2018-06-30T22:14:43.072Z,34.40
2018-06-30T22:17:11.177Z,34.90
2018-06-30T22:19:39.347Z,35.10
2018-06-30T22:22:07.910Z,35.30
2018-06-30T22:24:36.035Z,34.90
2018-06-30T22:27:04.193Z,35.60
2018-06-30T22:29:32.286Z,36.30
2018-06-30T22:32:00.395Z,35.40
2018-06-30T22:34:28.488Z,35.90
2018-06-30T22:36:56.584Z,35.90
2018-06-30T22:39:37.043Z,36.00
2018-06-30T22:42:05.326Z,36.50
2018-06-30T22:44:33.493Z,36.80
2018-06-30T22:47:01.898Z,37.10
2018-06-30T22:49:29.990Z,37.20
2018-06-30T22:51:58.087Z,37.20
2018-06-30T22:54:26.363Z,37.30
2018-06-30T22:56:54.402Z,37.80
2018-06-30T22:59:22.507Z,38.30
2018-06-30T23:01:50.619Z,38.10
2018-06-30T23:04:19.159Z,38.00
2018-06-30T23:06:47.274Z,38.00
2018-06-30T23:09:15.365Z,38.00
2018-06-30T23:11:43.510Z,38.70
2018-06-30T23:14:11.679Z,38.30
2018-06-30T23:16:40.107Z,38.80
2018-06-30T23:19:08.239Z,39.10
2018-06-30T23:21:36.318Z,38.60
2018-06-30T23:24:04.438Z,38.90
2018-06-30T23:26:32.519Z,38.80
2018-06-30T23:29:00.620Z,39.00
2018-06-30T23:31:28.719Z,39.10
2018-06-30T23:33:56.848Z,39.30
2018-06-30T23:38:53.194Z,39.50
2018-06-30T23:41:21.274Z,39.80
2018-06-30T23:43:49.371Z,39.40
2018-06-30T23:46:17.479Z,40.00
2018-06-30T23:48:45.582Z,39.70
2018-06-30T23:51:13.688Z,40.50
2018-06-30T23:53:41.786Z,39.90
2018-06-30T23:56:09.959Z,39.90
2018-06-30T23:58:38.077Z,39.90
